Hauptseite
METAR-TAF:

METAR-TAF

Flughäfen :

Gibraltar, Gibraltar

Flughafen Gibraltar

Breite: 36-09N, Länge: 005-21W, Höhe: 5 m

Beobachtung

Neuester Wetterbericht von vor 20 Minuten, um 21:50 UTC
Wind 7 kt aus Ost/Südost
Temperatur 14°C
Luftfeuchtigkeit 67%
Luftdruck 1010 hPa
Sichtweite 10 km oder mehr

METAR: LXGB 242150Z AUTO 11007KT 9999 // FEW039/// BKN050/// 14/08 Q1010

Zeit: 23:10 (22:10 UTC)

Prognose

Neuester Wetterbericht von vor 5 Stunden und 52 Minuten, um 16:18 UTC
Gültige Prognose vom 24 um 18 UTC bis 24 um 22 UTC
Wind 10 kt aus Ost
Sichtweite 10 km oder mehr
Durchbrochene Bewölkung in der Höhe von 3000 ft

TAF: LXGB 241618Z 2418/2422 09010KT 9999 BKN030

Wetterbeobachtungen und Prognosen von mehr als 4000 Flughäfen (METAR und TAF Bericht).

Die verfügbaren Stationen werden durch gelbe und rote Markierungen auf der Karte dargestellt.

Führen Sie die Maus auf sie, um den Namen der Station zu sehen.

Darauf klicken, um die Beobachtung von Wetterbeobachtungen und Prognosen zu sehen.

Um die Karte zu ändern : klicken Sie auf den grünen Tasten mit einem schwarzen Kreuz Zum Vergrößern, auf den grünen Button mit einem Gedankenstrich zu verkleinern, oder auf die grünen Pfeile für benachbarte Karten.


METAR-TAF: